Unser Flugplatzteam

Segelflugzeugschlepp am Flugplatz Konstanz

Unsere freundlichen Mitarbeiter stehen Ihnen gerne mit Rat und Tat zur Seite:

Robert Leitner

Flugleiter, Landesbeauftragter für Luftaufsicht am Verkehrlandeplatz Konstanz

Minky Schweizer

Flugleiterin

Live am Platz

Die Bilder unserer Webcams werden alle 5 Minuten aktualisiert.

Sonnenaufgang:

05:52 UTC / 07:52 Lokal

Sonnenuntergang:

16:22 UTC / 18:22 Lokal

METAR (23.10.2019 01:20 UTC):

EDNY 222320Z AUTO 03004KT 5000 // SCT014/// 11/10 Q1020
MVFR

TAF (22.10.2019 19:19 UTC):

TAF EDNY 221719Z 2218/2318 03003KT 8000 BKN020 TEMPO 2223/2309 4000 BR BKN008 PROB30 TEMPO 2304/2308 2000 BR BKN004 FM231200 01005KT 9000 FEW010

Alle Angaben unverbindlich und ohne Gewähr. Zeiten genähert.

Für den Verkehrslandeplatz Konstanz werden keine offiziellen Wetterinformationen ausgegeben. Daher werden zur Orientierung Daten des nahegelegenen Flughafens Friedrichshafen dargestellt.

Flugwetterdaten zur Verfügung gestellt von wippich.aero.